createdAt,value
2022-12-16T00:01:15.558Z,35.90
2022-12-16T00:03:52.197Z,37.03
2022-12-16T00:06:24.801Z,33.67
2022-12-16T00:08:53.556Z,35.78
2022-12-16T00:11:21.556Z,34.88
2022-12-16T00:13:49.642Z,36.97
2022-12-16T00:16:20.424Z,34.55
2022-12-16T00:18:48.949Z,36.30
2022-12-16T00:21:18.649Z,33.35
2022-12-16T00:23:47.138Z,34.55
2022-12-16T00:26:15.255Z,33.80
2022-12-16T00:28:43.952Z,34.17
2022-12-16T00:31:12.496Z,35.88
2022-12-16T00:33:41.036Z,33.63
2022-12-16T00:36:09.296Z,35.15
2022-12-16T00:38:38.006Z,34.20
2022-12-16T00:41:06.180Z,32.55
2022-12-16T00:43:34.611Z,34.22
2022-12-16T00:46:02.494Z,33.10
2022-12-16T00:48:30.596Z,34.03
2022-12-16T00:50:58.425Z,34.42
2022-12-16T00:53:26.809Z,35.50
2022-12-16T00:56:09.257Z,36.15
2022-12-16T00:58:37.948Z,36.92
2022-12-16T01:01:06.856Z,34.80
2022-12-16T01:03:35.702Z,36.05
2022-12-16T01:06:09.933Z,35.03
2022-12-16T01:08:38.084Z,37.60
2022-12-16T01:11:06.165Z,36.92
2022-12-16T01:13:34.679Z,35.00
2022-12-16T01:16:03.350Z,35.25
2022-12-16T01:18:31.834Z,35.30
2022-12-16T01:21:07.579Z,34.80
2022-12-16T01:23:36.671Z,34.90
2022-12-16T01:26:04.543Z,35.63
2022-12-16T01:28:32.609Z,36.28
2022-12-16T01:31:04.257Z,36.05
2022-12-16T01:33:33.540Z,34.25
2022-12-16T01:36:04.879Z,36.17
2022-12-16T01:38:33.287Z,34.83
2022-12-16T01:41:01.499Z,35.10
2022-12-16T01:43:33.225Z,34.65
2022-12-16T01:46:14.644Z,34.17
2022-12-16T01:49:08.185Z,32.67
2022-12-16T01:51:39.764Z,32.97
2022-12-16T01:54:23.568Z,33.72
2022-12-16T01:57:00.948Z,33.17
2022-12-16T01:59:31.701Z,32.75
2022-12-16T02:02:00.225Z,32.40
2022-12-16T02:04:28.347Z,32.53
2022-12-16T02:06:56.970Z,32.63
2022-12-16T02:09:25.227Z,31.58
2022-12-16T02:12:19.708Z,32.53
2022-12-16T02:15:02.806Z,31.08
2022-12-16T02:17:41.839Z,31.92
2022-12-16T02:20:19.082Z,31.92
2022-12-16T02:22:58.493Z,30.70
2022-12-16T02:25:58.426Z,29.50
2022-12-16T02:29:10.400Z,30.00
2022-12-16T02:31:56.152Z,30.88
2022-12-16T02:34:41.619Z,29.67
2022-12-16T02:37:29.052Z,29.80
2022-12-16T02:40:01.593Z,28.08
2022-12-16T02:43:12.603Z,29.05
2022-12-16T02:45:41.844Z,27.75
2022-12-16T02:48:09.784Z,29.70
2022-12-16T02:50:44.356Z,29.13
2022-12-16T02:53:13.043Z,29.95
2022-12-16T02:55:53.625Z,30.58
2022-12-16T02:58:32.248Z,30.85
2022-12-16T03:01:24.241Z,29.73
2022-12-16T03:04:10.786Z,29.15
2022-12-16T03:06:41.416Z,28.67
2022-12-16T03:09:13.511Z,27.88
2022-12-16T03:11:44.034Z,31.13
2022-12-16T03:14:16.854Z,28.23
2022-12-16T03:16:47.043Z,28.98
2022-12-16T03:19:15.216Z,29.23
2022-12-16T03:22:14.712Z,29.60
2022-12-16T03:24:43.568Z,28.95
2022-12-16T03:27:31.801Z,29.70
2022-12-16T03:30:06.774Z,27.80
2022-12-16T03:32:39.980Z,28.58
2022-12-16T03:35:19.669Z,29.38
2022-12-16T03:37:50.898Z,29.73
2022-12-16T03:40:21.590Z,31.48
2022-12-16T03:42:52.322Z,31.17
2022-12-16T03:45:26.590Z,30.80
2022-12-16T03:47:58.910Z,29.65
2022-12-16T03:50:31.984Z,30.17
2022-12-16T03:52:59.812Z,30.27
2022-12-16T03:55:28.210Z,30.98
2022-12-16T03:57:57.270Z,30.25
2022-12-16T04:00:25.723Z,32.55
2022-12-16T04:02:53.633Z,31.70
2022-12-16T04:05:22.949Z,32.28
2022-12-16T04:07:50.957Z,32.20
2022-12-16T04:10:39.015Z,32.65
2022-12-16T04:13:26.812Z,32.92
2022-12-16T04:16:13.957Z,31.25
2022-12-16T04:19:00.712Z,33.15
2022-12-16T04:21:47.736Z,31.55
2022-12-16T04:24:19.674Z,32.22
2022-12-16T04:27:15.069Z,34.42
2022-12-16T04:30:06.824Z,33.20
2022-12-16T04:32:53.264Z,32.22
2022-12-16T04:35:39.741Z,31.70
2022-12-16T04:38:26.597Z,33.67
2022-12-16T04:41:13.020Z,32.13
2022-12-16T04:44:00.266Z,33.28
2022-12-16T04:46:46.764Z,33.20
2022-12-16T04:49:33.299Z,33.13
2022-12-16T04:52:19.481Z,32.47
2022-12-16T04:55:06.026Z,33.53
2022-12-16T04:57:52.787Z,31.92
2022-12-16T05:00:39.884Z,32.28
2022-12-16T05:03:27.110Z,32.55
2022-12-16T05:06:13.567Z,33.65
2022-12-16T05:09:00.148Z,34.17
2022-12-16T05:11:46.816Z,31.77
2022-12-16T05:14:33.215Z,33.72
2022-12-16T05:17:19.515Z,33.53
2022-12-16T05:20:05.701Z,34.90
2022-12-16T05:22:52.728Z,35.15
2022-12-16T05:25:40.792Z,33.90
2022-12-16T05:28:27.658Z,32.63
2022-12-16T05:31:14.021Z,32.72
2022-12-16T05:34:00.788Z,35.33
2022-12-16T05:36:47.286Z,33.83
2022-12-16T05:39:33.799Z,32.38
2022-12-16T05:42:20.280Z,34.38
2022-12-16T05:45:06.843Z,34.42
2022-12-16T05:47:53.866Z,34.70
2022-12-16T05:50:40.368Z,35.63
2022-12-16T05:53:30.199Z,34.13
2022-12-16T05:56:17.163Z,33.20
2022-12-16T05:59:03.406Z,32.05
2022-12-16T06:01:50.119Z,34.38
2022-12-16T06:04:36.489Z,34.97
2022-12-16T06:07:22.926Z,34.97
2022-12-16T06:10:09.290Z,32.42
2022-12-16T06:12:55.732Z,34.97
2022-12-16T06:15:42.150Z,34.80
2022-12-16T06:18:28.886Z,37.58
2022-12-16T06:21:14.964Z,36.45
2022-12-16T06:24:01.587Z,38.45
2022-12-16T06:26:47.945Z,34.45
2022-12-16T06:29:34.272Z,35.15
2022-12-16T06:32:20.402Z,35.88
2022-12-16T06:35:07.137Z,35.83
2022-12-16T06:37:53.530Z,36.33
2022-12-16T06:40:40.228Z,35.60
2022-12-16T06:43:46.086Z,33.03
2022-12-16T06:46:32.601Z,36.83
2022-12-16T06:49:18.793Z,34.35
2022-12-16T06:52:05.097Z,38.88
2022-12-16T06:54:51.128Z,37.15
2022-12-16T06:57:37.769Z,30.75
2022-12-16T07:00:24.789Z,34.90
2022-12-16T07:03:11.177Z,37.97
2022-12-16T07:05:57.324Z,39.33
2022-12-16T07:08:43.880Z,35.63
2022-12-16T07:11:30.590Z,37.13
2022-12-16T07:14:17.324Z,30.92
2022-12-16T07:17:03.620Z,34.60
2022-12-16T07:19:50.094Z,34.58
2022-12-16T07:22:36.193Z,36.90
2022-12-16T07:25:23.409Z,35.00
2022-12-16T07:28:15.347Z,38.88
2022-12-16T07:31:03.079Z,41.95
2022-12-16T07:33:49.236Z,37.25
2022-12-16T07:36:35.742Z,36.95
2022-12-16T07:39:21.841Z,41.35
2022-12-16T07:42:08.193Z,38.25
2022-12-16T07:44:54.739Z,36.92
2022-12-16T07:47:41.073Z,36.80
2022-12-16T07:50:27.560Z,36.00
2022-12-16T07:53:15.875Z,38.28
2022-12-16T07:56:02.950Z,36.88
2022-12-16T07:58:49.828Z,36.85
2022-12-16T08:01:36.628Z,36.65
2022-12-16T08:04:23.187Z,36.80
2022-12-16T08:07:09.498Z,36.42
2022-12-16T08:09:55.923Z,37.42
2022-12-16T08:12:42.641Z,39.47
2022-12-16T08:15:29.460Z,36.70
2022-12-16T08:18:15.881Z,33.58
2022-12-16T08:21:02.509Z,37.30
2022-12-16T08:23:49.041Z,35.85
2022-12-16T08:26:35.555Z,34.80
2022-12-16T08:29:43.139Z,35.42
2022-12-16T08:32:28.312Z,35.15
2022-12-16T08:35:14.751Z,37.28
2022-12-16T08:38:01.459Z,39.40
2022-12-16T08:40:47.812Z,37.38
2022-12-16T08:43:35.242Z,36.92
2022-12-16T08:46:21.709Z,37.53
2022-12-16T08:49:08.189Z,36.33
2022-12-16T08:51:55.293Z,36.95
2022-12-16T08:54:42.131Z,35.75
2022-12-16T08:57:29.461Z,35.90
2022-12-16T09:00:16.298Z,40.05
2022-12-16T09:03:02.664Z,37.45
2022-12-16T09:05:49.552Z,38.67
2022-12-16T09:08:36.094Z,34.40
2022-12-16T09:11:23.078Z,36.85
2022-12-16T09:14:09.427Z,35.78
2022-12-16T09:16:56.419Z,39.05
2022-12-16T09:19:42.624Z,32.97
2022-12-16T09:22:29.183Z,36.17
2022-12-16T09:25:15.814Z,36.20
2022-12-16T09:28:02.535Z,35.45
2022-12-16T09:30:48.898Z,34.65
2022-12-16T09:33:35.900Z,35.28
2022-12-16T09:36:23.019Z,34.65
2022-12-16T09:39:09.468Z,35.15
2022-12-16T09:42:26.788Z,34.88
2022-12-16T09:45:30.341Z,34.15
2022-12-16T09:48:25.163Z,36.95
2022-12-16T09:51:14.886Z,36.20
2022-12-16T09:54:02.992Z,33.80
2022-12-16T09:56:55.141Z,36.08
2022-12-16T09:59:53.093Z,37.05
2022-12-16T10:02:43.544Z,35.50
2022-12-16T10:05:37.970Z,38.38
2022-12-16T10:08:29.992Z,37.88
2022-12-16T10:11:22.825Z,36.15
2022-12-16T10:14:19.738Z,34.80
2022-12-16T10:17:38.931Z,36.33
2022-12-16T10:20:31.613Z,33.60
2022-12-16T10:23:29.487Z,31.08
2022-12-16T10:26:30.793Z,36.88
2022-12-16T10:29:39.911Z,34.15
2022-12-16T10:33:00.584Z,35.58
2022-12-16T10:35:51.285Z,34.17
2022-12-16T10:38:55.028Z,36.42
2022-12-16T10:41:46.675Z,37.10
2022-12-16T10:44:47.656Z,35.08
2022-12-16T10:47:34.171Z,37.35
2022-12-16T10:50:21.047Z,36.20
2022-12-16T10:53:21.165Z,35.47
2022-12-16T10:56:10.671Z,35.40
2022-12-16T10:59:17.665Z,33.75
2022-12-16T11:02:17.288Z,34.33
2022-12-16T11:05:04.740Z,37.55
2022-12-16T11:07:51.267Z,39.83
2022-12-16T11:10:57.106Z,33.97
2022-12-16T11:13:45.678Z,37.33
2022-12-16T11:16:39.772Z,33.92
2022-12-16T11:19:47.500Z,36.22
2022-12-16T11:22:51.169Z,35.65
2022-12-16T11:25:40.224Z,34.92
2022-12-16T11:28:50.079Z,34.33
2022-12-16T11:31:36.730Z,37.83
2022-12-16T11:34:23.892Z,30.75
2022-12-16T11:37:11.852Z,34.83
2022-12-16T11:39:59.529Z,33.67
2022-12-16T11:42:50.624Z,36.25
2022-12-16T11:45:39.878Z,36.45
2022-12-16T11:49:00.590Z,33.38
2022-12-16T11:51:50.575Z,32.15
2022-12-16T11:54:47.824Z,35.33
2022-12-16T11:57:44.875Z,34.72
2022-12-16T12:00:35.135Z,31.75
2022-12-16T12:03:29.905Z,32.30
2022-12-16T12:06:49.542Z,31.67
2022-12-16T12:09:38.957Z,33.15
2022-12-16T12:12:42.756Z,34.17
2022-12-16T12:15:32.141Z,34.33
2022-12-16T12:18:27.173Z,35.40
2022-12-16T12:21:27.043Z,34.55
2022-12-16T12:24:19.760Z,30.02
2022-12-16T12:27:35.619Z,33.13
2022-12-16T12:30:36.862Z,32.90
2022-12-16T12:34:07.594Z,34.00
2022-12-16T12:37:25.060Z,31.13
2022-12-16T12:40:37.005Z,33.08
2022-12-16T12:43:43.236Z,29.00
2022-12-16T12:46:57.926Z,30.38
2022-12-16T12:49:55.619Z,30.33
2022-12-16T12:53:19.292Z,27.60
2022-12-16T12:56:09.048Z,29.77
2022-12-16T12:58:57.863Z,30.30
2022-12-16T13:01:49.890Z,27.55
2022-12-16T13:04:39.832Z,30.45
2022-12-16T13:07:27.262Z,33.45
2022-12-16T13:10:34.005Z,32.97
2022-12-16T13:13:48.115Z,31.00
2022-12-16T13:17:05.320Z,30.40
2022-12-16T13:19:54.530Z,31.25
2022-12-16T13:23:03.770Z,24.55
2022-12-16T13:26:10.335Z,30.90
2022-12-16T13:29:01.483Z,27.60
2022-12-16T13:31:49.115Z,23.90
2022-12-16T13:34:46.184Z,26.58
2022-12-16T13:37:43.436Z,26.45
2022-12-16T13:40:38.359Z,29.13
2022-12-16T13:43:45.428Z,30.70
2022-12-16T13:46:33.819Z,27.70
2022-12-16T13:49:56.009Z,30.83
2022-12-16T13:53:07.399Z,32.05
2022-12-16T13:56:15.936Z,27.27
2022-12-16T13:59:08.622Z,27.63
2022-12-16T14:02:15.588Z,31.92
2022-12-16T14:05:07.090Z,31.75
2022-12-16T14:07:57.684Z,34.72
2022-12-16T14:10:51.935Z,30.23
2022-12-16T14:14:05.086Z,30.15
2022-12-16T14:17:06.323Z,38.17
2022-12-16T14:20:20.996Z,40.17
2022-12-16T14:23:55.820Z,35.17
2022-12-16T14:26:39.759Z,29.60
2022-12-16T14:29:40.082Z,27.85
2022-12-16T14:32:44.880Z,32.05
2022-12-16T14:35:46.495Z,33.35
2022-12-16T14:38:43.828Z,32.13
2022-12-16T14:41:44.053Z,29.92
2022-12-16T14:44:41.983Z,31.67
2022-12-16T14:47:39.290Z,23.38
2022-12-16T14:50:39.809Z,27.08
2022-12-16T14:53:48.954Z,28.85
2022-12-16T14:56:41.735Z,31.17
2022-12-16T14:59:38.726Z,33.45
2022-12-16T15:02:52.623Z,31.42
2022-12-16T15:05:46.086Z,33.58
2022-12-16T15:08:36.434Z,31.63
2022-12-16T15:11:27.861Z,30.83
2022-12-16T15:14:18.956Z,31.30
2022-12-16T15:17:07.873Z,31.00
2022-12-16T15:20:08.561Z,30.02
2022-12-16T15:22:55.099Z,28.45
2022-12-16T15:25:44.229Z,30.65
2022-12-16T15:29:01.447Z,29.73
2022-12-16T15:31:55.228Z,28.10
2022-12-16T15:35:07.135Z,29.90
2022-12-16T15:38:04.132Z,29.33
2022-12-16T15:41:00.164Z,30.08
2022-12-16T15:43:57.369Z,33.35
2022-12-16T15:46:48.137Z,36.10
2022-12-16T15:49:46.452Z,28.85
2022-12-16T15:52:53.507Z,29.38
2022-12-16T15:55:49.419Z,27.92
2022-12-16T15:58:53.649Z,29.85
2022-12-16T16:04:47.163Z,30.85
2022-12-16T16:07:42.878Z,28.83
2022-12-16T16:10:36.672Z,29.17
2022-12-16T16:13:23.600Z,26.83
2022-12-16T16:16:10.771Z,24.52
2022-12-16T16:18:58.565Z,28.90
2022-12-16T16:21:45.082Z,28.30
2022-12-16T16:24:32.204Z,29.73
2022-12-16T16:27:21.069Z,28.55
2022-12-16T16:30:07.549Z,27.67
2022-12-16T16:32:53.856Z,25.27
2022-12-16T16:35:40.360Z,27.17
2022-12-16T16:38:31.705Z,26.45
2022-12-16T16:41:18.525Z,27.30
2022-12-16T16:44:04.844Z,23.15
2022-12-16T16:46:59.055Z,27.38
2022-12-16T16:49:52.309Z,26.40
2022-12-16T16:52:41.632Z,24.30
2022-12-16T16:55:42.946Z,27.60
2022-12-16T16:58:45.584Z,26.95
2022-12-16T17:01:33.303Z,26.80
2022-12-16T17:04:20.665Z,27.25
2022-12-16T17:07:07.075Z,29.10
2022-12-16T17:09:53.818Z,29.33
2022-12-16T17:12:42.797Z,24.75
2022-12-16T17:15:42.862Z,27.30
2022-12-16T17:18:29.454Z,22.52
2022-12-16T17:21:16.094Z,26.08
2022-12-16T17:24:02.592Z,27.17
2022-12-16T17:26:49.393Z,25.35
2022-12-16T17:29:41.607Z,24.73
2022-12-16T17:32:29.329Z,25.50
2022-12-16T17:35:16.243Z,26.48
2022-12-16T17:38:03.188Z,27.17
2022-12-16T17:40:49.185Z,25.73
2022-12-16T17:43:35.950Z,26.42
2022-12-16T17:46:25.738Z,24.70
2022-12-16T17:49:13.709Z,22.75
2022-12-16T17:52:00.732Z,20.25
2022-12-16T17:54:47.684Z,24.20
2022-12-16T17:57:33.806Z,24.55
2022-12-16T18:00:20.198Z,24.23
2022-12-16T18:03:06.709Z,25.33
2022-12-16T18:05:53.415Z,25.00
2022-12-16T18:08:39.962Z,25.35
2022-12-16T18:11:26.614Z,21.27
2022-12-16T18:14:13.155Z,23.75
2022-12-16T18:16:59.777Z,22.80
2022-12-16T18:19:46.298Z,25.73
2022-12-16T18:22:35.303Z,24.52
2022-12-16T18:25:21.787Z,24.85
2022-12-16T18:28:08.366Z,24.52
2022-12-16T18:30:56.056Z,25.60
2022-12-16T18:33:42.543Z,33.92
2022-12-16T18:36:45.699Z,26.48
2022-12-16T18:39:32.205Z,30.88
2022-12-16T18:42:18.601Z,28.35
2022-12-16T18:45:07.621Z,30.25
2022-12-16T18:47:54.047Z,27.42
2022-12-16T18:50:40.629Z,27.30
2022-12-16T18:53:27.333Z,26.98
2022-12-16T18:56:25.969Z,24.33
2022-12-16T18:59:12.666Z,25.73
2022-12-16T19:01:59.720Z,24.98
2022-12-16T19:04:46.259Z,24.63
2022-12-16T19:07:33.901Z,26.15
2022-12-16T19:10:20.783Z,25.83
2022-12-16T19:13:07.413Z,24.45
2022-12-16T19:15:54.365Z,29.17
2022-12-16T19:18:41.338Z,30.33
2022-12-16T19:21:28.854Z,29.95
2022-12-16T19:24:15.275Z,33.53
2022-12-16T19:27:01.860Z,35.90
2022-12-16T19:29:48.421Z,33.72
2022-12-16T19:32:34.818Z,33.65
2022-12-16T19:35:21.411Z,28.63
2022-12-16T19:38:08.091Z,30.65
2022-12-16T19:40:54.584Z,27.52
2022-12-16T19:43:42.648Z,34.67
2022-12-16T19:46:29.218Z,35.88
2022-12-16T19:49:15.366Z,29.27
2022-12-16T19:52:01.785Z,26.88
2022-12-16T19:54:48.444Z,29.55
2022-12-16T19:57:34.982Z,27.02
2022-12-16T20:00:22.558Z,27.30
2022-12-16T20:03:09.495Z,25.50
2022-12-16T20:05:56.045Z,25.42
2022-12-16T20:08:42.726Z,24.23
2022-12-16T20:11:29.388Z,25.13
2022-12-16T20:14:16.353Z,26.63
2022-12-16T20:17:02.864Z,29.10
2022-12-16T20:19:49.484Z,27.63
2022-12-16T20:22:35.615Z,26.73
2022-12-16T20:25:22.152Z,27.98
2022-12-16T20:28:08.401Z,29.08
2022-12-16T20:30:56.278Z,26.85
2022-12-16T20:33:43.200Z,34.22
2022-12-16T20:36:29.941Z,26.58
2022-12-16T20:39:16.399Z,27.65
2022-12-16T20:42:02.888Z,26.85
2022-12-16T20:44:49.473Z,34.20
2022-12-16T20:47:36.210Z,29.50
2022-12-16T20:50:22.600Z,27.15
2022-12-16T20:53:09.282Z,25.40
2022-12-16T20:55:56.192Z,26.73
2022-12-16T20:58:43.021Z,27.25
2022-12-16T21:01:29.652Z,26.20
2022-12-16T21:04:16.140Z,27.38
2022-12-16T21:07:02.643Z,26.60
2022-12-16T21:09:49.533Z,30.63
2022-12-16T21:12:35.933Z,32.53
2022-12-16T21:15:23.047Z,34.15
2022-12-16T21:18:09.520Z,30.52
2022-12-16T21:20:56.439Z,31.55
2022-12-16T21:23:42.935Z,41.30
2022-12-16T21:26:29.552Z,41.45
2022-12-16T21:29:15.618Z,31.38
2022-12-16T21:32:02.423Z,33.88
2022-12-16T21:34:48.744Z,34.17
2022-12-16T21:37:35.151Z,31.00
2022-12-16T21:40:21.986Z,26.92
2022-12-16T21:43:08.518Z,27.80
2022-12-16T21:45:56.121Z,25.95
2022-12-16T21:48:47.135Z,27.55
2022-12-16T21:51:33.432Z,27.23
2022-12-16T21:54:21.472Z,23.45
2022-12-16T21:57:07.809Z,27.02
2022-12-16T21:59:54.249Z,28.50
2022-12-16T22:02:43.074Z,27.95
2022-12-16T22:05:29.983Z,28.25
2022-12-16T22:08:16.681Z,28.48
2022-12-16T22:11:03.278Z,27.48
2022-12-16T22:13:49.899Z,27.20
2022-12-16T22:16:43.762Z,28.02
2022-12-16T22:29:12.552Z,28.83
2022-12-16T22:31:59.165Z,28.50
2022-12-16T22:34:45.460Z,29.50
2022-12-16T22:37:31.928Z,30.77
2022-12-16T22:40:18.474Z,29.08
2022-12-16T22:43:07.494Z,28.23
2022-12-16T22:45:54.038Z,27.38
2022-12-16T22:48:42.762Z,29.55
2022-12-16T22:51:30.781Z,28.02
2022-12-16T22:54:17.755Z,28.98
2022-12-16T22:57:04.205Z,26.65
2022-12-16T22:59:50.690Z,29.25
2022-12-16T23:02:38.300Z,31.65
2022-12-16T23:05:27.724Z,30.65
2022-12-16T23:08:14.982Z,30.38
2022-12-16T23:11:01.533Z,29.58
2022-12-16T23:13:47.976Z,29.25
2022-12-16T23:16:34.577Z,28.42
2022-12-16T23:19:20.945Z,29.27
2022-12-16T23:22:08.217Z,28.08
2022-12-16T23:24:54.591Z,29.55
2022-12-16T23:27:41.334Z,28.92
2022-12-16T23:30:28.406Z,27.77
2022-12-16T23:33:19.156Z,25.67
2022-12-16T23:36:05.186Z,28.30
2022-12-16T23:38:51.738Z,27.48
2022-12-16T23:41:39.698Z,25.02
2022-12-16T23:44:26.437Z,28.13
2022-12-16T23:47:12.813Z,27.00
2022-12-16T23:49:59.331Z,26.83
2022-12-16T23:52:45.742Z,27.38
2022-12-16T23:55:32.290Z,26.67
2022-12-16T23:58:20.011Z,26.27
